sensor_id;sensor_type;location;lat;lon;timestamp;temperature;humidity
15257;DHT22;7731;50.720;6.912;2023-08-20T00:01:43;21.30;99.90
15257;DHT22;7731;50.720;6.912;2023-08-20T00:04:22;21.30;99.90
15257;DHT22;7731;50.720;6.912;2023-08-20T00:06:56;21.20;99.90
15257;DHT22;7731;50.720;6.912;2023-08-20T00:09:26;21.20;99.90
15257;DHT22;7731;50.720;6.912;2023-08-20T00:12:03;21.10;99.90
15257;DHT22;7731;50.720;6.912;2023-08-20T00:14:57;21.00;99.90
15257;DHT22;7731;50.720;6.912;2023-08-20T00:17:33;21.00;99.90
15257;DHT22;7731;50.720;6.912;2023-08-20T00:20:07;21.00;99.90
15257;DHT22;7731;50.720;6.912;2023-08-20T00:22:41;21.00;99.90
15257;DHT22;7731;50.720;6.912;2023-08-20T00:25:13;21.00;99.90
15257;DHT22;7731;50.720;6.912;2023-08-20T00:27:48;21.00;99.90
15257;DHT22;7731;50.720;6.912;2023-08-20T00:30:21;21.00;99.90
15257;DHT22;7731;50.720;6.912;2023-08-20T00:32:52;20.90;99.90
15257;DHT22;7731;50.720;6.912;2023-08-20T00:35:23;20.80;99.90
15257;DHT22;7731;50.720;6.912;2023-08-20T00:37:53;20.60;99.90
15257;DHT22;7731;50.720;6.912;2023-08-20T00:40:24;20.60;99.90
15257;DHT22;7731;50.720;6.912;2023-08-20T00:42:57;20.60;99.90
15257;DHT22;7731;50.720;6.912;2023-08-20T00:45:30;20.60;99.90
15257;DHT22;7731;50.720;6.912;2023-08-20T00:48:01;20.50;99.90
15257;DHT22;7731;50.720;6.912;2023-08-20T00:50:31;20.60;99.90
15257;DHT22;7731;50.720;6.912;2023-08-20T00:53:03;20.60;99.90
15257;DHT22;7731;50.720;6.912;2023-08-20T00:55:34;20.60;99.90
15257;DHT22;7731;50.720;6.912;2023-08-20T00:58:05;20.60;99.90
15257;DHT22;7731;50.720;6.912;2023-08-20T01:00:53;20.70;99.90
15257;DHT22;7731;50.720;6.912;2023-08-20T01:03:26;20.70;99.90
15257;DHT22;7731;50.720;6.912;2023-08-20T01:06:03;20.70;99.90
15257;DHT22;7731;50.720;6.912;2023-08-20T01:08:46;20.60;99.90
15257;DHT22;7731;50.720;6.912;2023-08-20T01:11:24;20.60;99.90
15257;DHT22;7731;50.720;6.912;2023-08-20T01:14:14;20.50;99.90
15257;DHT22;7731;50.720;6.912;2023-08-20T01:16:50;20.60;99.90
15257;DHT22;7731;50.720;6.912;2023-08-20T01:19:32;20.60;99.90
15257;DHT22;7731;50.720;6.912;2023-08-20T01:25:37;20.40;99.90
15257;DHT22;7731;50.720;6.912;2023-08-20T01:28:31;20.40;99.90
15257;DHT22;7731;50.720;6.912;2023-08-20T01:31:03;20.40;99.90
15257;DHT22;7731;50.720;6.912;2023-08-20T01:33:34;20.30;99.90
15257;DHT22;7731;50.720;6.912;2023-08-20T01:36:07;20.30;99.90
15257;DHT22;7731;50.720;6.912;2023-08-20T01:38:39;20.30;99.90
15257;DHT22;7731;50.720;6.912;2023-08-20T01:41:09;20.30;99.90
15257;DHT22;7731;50.720;6.912;2023-08-20T01:43:42;20.30;99.90
15257;DHT22;7731;50.720;6.912;2023-08-20T01:46:15;20.30;99.90
15257;DHT22;7731;50.720;6.912;2023-08-20T01:48:46;20.30;99.90
15257;DHT22;7731;50.720;6.912;2023-08-20T01:51:16;20.20;99.90
15257;DHT22;7731;50.720;6.912;2023-08-20T01:53:48;20.20;99.90
15257;DHT22;7731;50.720;6.912;2023-08-20T01:56:19;20.20;99.90
15257;DHT22;7731;50.720;6.912;2023-08-20T01:58:59;20.10;99.90
15257;DHT22;7731;50.720;6.912;2023-08-20T02:01:29;20.10;99.90
15257;DHT22;7731;50.720;6.912;2023-08-20T02:04:00;20.10;99.90
15257;DHT22;7731;50.720;6.912;2023-08-20T02:06:31;20.10;99.90
15257;DHT22;7731;50.720;6.912;2023-08-20T02:09:01;20.10;99.90
15257;DHT22;7731;50.720;6.912;2023-08-20T02:11:32;20.00;99.90
15257;DHT22;7731;50.720;6.912;2023-08-20T02:14:08;20.00;99.90
15257;DHT22;7731;50.720;6.912;2023-08-20T02:16:38;20.00;99.90
15257;DHT22;7731;50.720;6.912;2023-08-20T02:19:12;19.90;99.90
15257;DHT22;7731;50.720;6.912;2023-08-20T02:21:42;19.90;99.90
15257;DHT22;7731;50.720;6.912;2023-08-20T02:24:13;19.90;99.90
15257;DHT22;7731;50.720;6.912;2023-08-20T02:26:43;19.80;99.90
15257;DHT22;7731;50.720;6.912;2023-08-20T02:29:16;19.80;99.90
15257;DHT22;7731;50.720;6.912;2023-08-20T02:31:46;19.80;99.90
15257;DHT22;7731;50.720;6.912;2023-08-20T02:34:17;19.80;99.90
15257;DHT22;7731;50.720;6.912;2023-08-20T02:36:47;19.80;99.90
15257;DHT22;7731;50.720;6.912;2023-08-20T02:39:20;19.80;99.90
15257;DHT22;7731;50.720;6.912;2023-08-20T02:41:52;19.80;99.90
15257;DHT22;7731;50.720;6.912;2023-08-20T02:44:24;19.80;99.90
15257;DHT22;7731;50.720;6.912;2023-08-20T02:46:55;19.80;99.90
15257;DHT22;7731;50.720;6.912;2023-08-20T02:49:25;19.80;99.90
15257;DHT22;7731;50.720;6.912;2023-08-20T02:52:02;19.80;99.90
15257;DHT22;7731;50.720;6.912;2023-08-20T02:54:32;19.80;99.90
15257;DHT22;7731;50.720;6.912;2023-08-20T02:57:03;19.80;99.90
15257;DHT22;7731;50.720;6.912;2023-08-20T02:59:36;19.80;99.90
15257;DHT22;7731;50.720;6.912;2023-08-20T03:02:12;19.80;99.90
15257;DHT22;7731;50.720;6.912;2023-08-20T03:04:42;19.80;99.90
15257;DHT22;7731;50.720;6.912;2023-08-20T03:07:15;19.80;99.90
15257;DHT22;7731;50.720;6.912;2023-08-20T03:09:46;19.80;99.90
15257;DHT22;7731;50.720;6.912;2023-08-20T03:12:16;19.80;99.90
15257;DHT22;7731;50.720;6.912;2023-08-20T03:14:49;19.90;99.90
15257;DHT22;7731;50.720;6.912;2023-08-20T03:17:25;19.80;99.90
15257;DHT22;7731;50.720;6.912;2023-08-20T03:20:00;19.90;99.90
15257;DHT22;7731;50.720;6.912;2023-08-20T03:22:36;19.80;99.90
15257;DHT22;7731;50.720;6.912;2023-08-20T03:25:15;19.70;99.90
15257;DHT22;7731;50.720;6.912;2023-08-20T03:27:45;19.80;99.90
15257;DHT22;7731;50.720;6.912;2023-08-20T03:30:21;19.80;99.90
15257;DHT22;7731;50.720;6.912;2023-08-20T03:32:54;19.70;99.90
15257;DHT22;7731;50.720;6.912;2023-08-20T03:35:25;19.80;99.90
15257;DHT22;7731;50.720;6.912;2023-08-20T03:37:55;19.80;99.90
15257;DHT22;7731;50.720;6.912;2023-08-20T03:40:27;19.80;99.90
15257;DHT22;7731;50.720;6.912;2023-08-20T03:42:57;19.80;99.90
15257;DHT22;7731;50.720;6.912;2023-08-20T03:45:35;19.90;99.90
15257;DHT22;7731;50.720;6.912;2023-08-20T03:48:08;19.90;99.90
15257;DHT22;7731;50.720;6.912;2023-08-20T03:50:39;19.90;99.90
15257;DHT22;7731;50.720;6.912;2023-08-20T03:53:12;19.80;99.90
15257;DHT22;7731;50.720;6.912;2023-08-20T03:55:48;19.90;99.90
15257;DHT22;7731;50.720;6.912;2023-08-20T03:58:18;19.90;99.90
15257;DHT22;7731;50.720;6.912;2023-08-20T04:00:51;19.90;99.90
15257;DHT22;7731;50.720;6.912;2023-08-20T04:03:21;20.00;99.90
15257;DHT22;7731;50.720;6.912;2023-08-20T04:05:52;20.00;99.90
15257;DHT22;7731;50.720;6.912;2023-08-20T04:08:22;20.10;99.90
15257;DHT22;7731;50.720;6.912;2023-08-20T04:10:53;20.00;99.90
15257;DHT22;7731;50.720;6.912;2023-08-20T04:13:23;20.00;99.90
15257;DHT22;7731;50.720;6.912;2023-08-20T04:15:59;20.00;99.90
15257;DHT22;7731;50.720;6.912;2023-08-20T04:18:49;19.90;99.90
15257;DHT22;7731;50.720;6.912;2023-08-20T04:21:28;19.80;99.90
15257;DHT22;7731;50.720;6.912;2023-08-20T04:24:01;19.80;99.90
15257;DHT22;7731;50.720;6.912;2023-08-20T04:26:35;19.80;99.90
15257;DHT22;7731;50.720;6.912;2023-08-20T04:29:05;19.70;99.90
15257;DHT22;7731;50.720;6.912;2023-08-20T04:31:38;19.70;99.90
15257;DHT22;7731;50.720;6.912;2023-08-20T04:34:11;19.60;99.90
15257;DHT22;7731;50.720;6.912;2023-08-20T04:36:42;19.70;99.90
15257;DHT22;7731;50.720;6.912;2023-08-20T04:39:12;19.60;99.90
15257;DHT22;7731;50.720;6.912;2023-08-20T04:41:42;19.70;99.90
15257;DHT22;7731;50.720;6.912;2023-08-20T04:44:13;19.70;99.90
15257;DHT22;7731;50.720;6.912;2023-08-20T04:47:04;19.70;99.90
15257;DHT22;7731;50.720;6.912;2023-08-20T04:49:35;19.70;99.90
15257;DHT22;7731;50.720;6.912;2023-08-20T04:52:08;19.70;99.90
15257;DHT22;7731;50.720;6.912;2023-08-20T04:54:38;19.80;99.90
15257;DHT22;7731;50.720;6.912;2023-08-20T04:57:08;19.80;99.90
15257;DHT22;7731;50.720;6.912;2023-08-20T04:59:47;19.90;99.90
15257;DHT22;7731;50.720;6.912;2023-08-20T05:02:29;19.90;99.90
15257;DHT22;7731;50.720;6.912;2023-08-20T05:05:01;20.00;99.90
15257;DHT22;7731;50.720;6.912;2023-08-20T05:07:32;20.20;99.90
15257;DHT22;7731;50.720;6.912;2023-08-20T05:10:03;20.30;99.90
15257;DHT22;7731;50.720;6.912;2023-08-20T05:12:38;20.40;99.90
15257;DHT22;7731;50.720;6.912;2023-08-20T05:15:10;20.30;99.90
15257;DHT22;7731;50.720;6.912;2023-08-20T05:17:45;20.40;99.90
15257;DHT22;7731;50.720;6.912;2023-08-20T05:20:15;20.40;99.90
15257;DHT22;7731;50.720;6.912;2023-08-20T05:22:45;20.40;99.90
15257;DHT22;7731;50.720;6.912;2023-08-20T05:25:19;20.40;99.90
15257;DHT22;7731;50.720;6.912;2023-08-20T05:27:51;20.50;99.90
15257;DHT22;7731;50.720;6.912;2023-08-20T05:30:22;20.60;99.90
15257;DHT22;7731;50.720;6.912;2023-08-20T05:32:55;20.60;99.90
15257;DHT22;7731;50.720;6.912;2023-08-20T05:35:25;20.50;99.90
15257;DHT22;7731;50.720;6.912;2023-08-20T05:38:06;20.40;99.90
15257;DHT22;7731;50.720;6.912;2023-08-20T05:40:36;20.30;99.90
15257;DHT22;7731;50.720;6.912;2023-08-20T05:43:07;20.40;99.90
15257;DHT22;7731;50.720;6.912;2023-08-20T05:45:43;20.40;99.90
15257;DHT22;7731;50.720;6.912;2023-08-20T05:48:16;20.50;99.90
15257;DHT22;7731;50.720;6.912;2023-08-20T05:50:46;20.70;99.90
15257;DHT22;7731;50.720;6.912;2023-08-20T05:53:16;20.90;99.90
15257;DHT22;7731;50.720;6.912;2023-08-20T05:55:47;21.20;99.90
15257;DHT22;7731;50.720;6.912;2023-08-20T05:58:17;21.30;99.90
15257;DHT22;7731;50.720;6.912;2023-08-20T06:00:47;21.70;99.90
15257;DHT22;7731;50.720;6.912;2023-08-20T06:03:20;21.80;99.90
15257;DHT22;7731;50.720;6.912;2023-08-20T06:06:03;22.00;99.90
15257;DHT22;7731;50.720;6.912;2023-08-20T06:08:35;22.20;99.90
15257;DHT22;7731;50.720;6.912;2023-08-20T06:11:05;22.70;99.90
15257;DHT22;7731;50.720;6.912;2023-08-20T06:13:43;22.80;99.90
15257;DHT22;7731;50.720;6.912;2023-08-20T06:16:16;22.80;99.90
15257;DHT22;7731;50.720;6.912;2023-08-20T06:18:49;22.70;99.90
15257;DHT22;7731;50.720;6.912;2023-08-20T06:21:26;22.90;99.90
15257;DHT22;7731;50.720;6.912;2023-08-20T06:24:00;23.90;99.90
15257;DHT22;7731;50.720;6.912;2023-08-20T06:26:31;24.10;99.90
15257;DHT22;7731;50.720;6.912;2023-08-20T06:29:01;24.00;99.90
15257;DHT22;7731;50.720;6.912;2023-08-20T06:31:34;24.00;99.90
15257;DHT22;7731;50.720;6.912;2023-08-20T06:34:07;24.10;99.90
15257;DHT22;7731;50.720;6.912;2023-08-20T06:36:38;23.90;99.90
15257;DHT22;7731;50.720;6.912;2023-08-20T06:39:08;23.80;99.90
15257;DHT22;7731;50.720;6.912;2023-08-20T06:41:38;24.20;99.90
15257;DHT22;7731;50.720;6.912;2023-08-20T06:44:09;25.70;99.90
15257;DHT22;7731;50.720;6.912;2023-08-20T06:46:40;27.30;99.90
15257;DHT22;7731;50.720;6.912;2023-08-20T06:49:13;28.30;93.50
15257;DHT22;7731;50.720;6.912;2023-08-20T06:51:47;29.20;77.50
15257;DHT22;7731;50.720;6.912;2023-08-20T06:54:17;30.10;16.80
15257;DHT22;7731;50.720;6.912;2023-08-20T06:56:47;30.30;1.00
15257;DHT22;7731;50.720;6.912;2023-08-20T06:59:18;29.20;35.70
15257;DHT22;7731;50.720;6.912;2023-08-20T07:01:48;28.30;93.40
15257;DHT22;7731;50.720;6.912;2023-08-20T07:04:23;28.70;65.60
15257;DHT22;7731;50.720;6.912;2023-08-20T07:06:59;30.20;1.00
15257;DHT22;7731;50.720;6.912;2023-08-20T07:09:31;30.60;1.00
15257;DHT22;7731;50.720;6.912;2023-08-20T07:12:02;31.10;1.00
15257;DHT22;7731;50.720;6.912;2023-08-20T07:14:36;30.40;1.00
15257;DHT22;7731;50.720;6.912;2023-08-20T07:17:09;29.60;24.90
15257;DHT22;7731;50.720;6.912;2023-08-20T07:20:03;29.70;19.80
15257;DHT22;7731;50.720;6.912;2023-08-20T07:22:34;30.50;1.00
15257;DHT22;7731;50.720;6.912;2023-08-20T07:25:08;31.20;1.00
15257;DHT22;7731;50.720;6.912;2023-08-20T07:27:38;32.00;1.00
15257;DHT22;7731;50.720;6.912;2023-08-20T07:30:11;32.20;1.00
15257;DHT22;7731;50.720;6.912;2023-08-20T07:32:44;32.50;1.00
15257;DHT22;7731;50.720;6.912;2023-08-20T07:35:17;32.60;1.00
15257;DHT22;7731;50.720;6.912;2023-08-20T07:37:53;33.20;1.00
15257;DHT22;7731;50.720;6.912;2023-08-20T07:40:24;33.80;1.00
15257;DHT22;7731;50.720;6.912;2023-08-20T07:42:54;33.40;1.00
15257;DHT22;7731;50.720;6.912;2023-08-20T07:45:24;33.00;99.90
15257;DHT22;7731;50.720;6.912;2023-08-20T07:47:55;33.60;36.90
15257;DHT22;7731;50.720;6.912;2023-08-20T07:50:30;34.30;1.00
15257;DHT22;7731;50.720;6.912;2023-08-20T07:53:01;34.30;1.00
15257;DHT22;7731;50.720;6.912;2023-08-20T07:55:31;34.50;1.00
15257;DHT22;7731;50.720;6.912;2023-08-20T07:58:01;34.80;62.80
15257;DHT22;7731;50.720;6.912;2023-08-20T08:00:35;35.10;1.00
15257;DHT22;7731;50.720;6.912;2023-08-20T08:03:05;33.70;99.90
15257;DHT22;7731;50.720;6.912;2023-08-20T08:05:39;32.60;1.00
15257;DHT22;7731;50.720;6.912;2023-08-20T08:08:09;34.10;99.90
15257;DHT22;7731;50.720;6.912;2023-08-20T08:10:40;34.80;1.00
15257;DHT22;7731;50.720;6.912;2023-08-20T08:13:15;35.70;99.90
15257;DHT22;7731;50.720;6.912;2023-08-20T08:15:49;35.50;1.00
15257;DHT22;7731;50.720;6.912;2023-08-20T08:18:20;36.30;1.00
15257;DHT22;7731;50.720;6.912;2023-08-20T08:20:53;36.40;99.90
15257;DHT22;7731;50.720;6.912;2023-08-20T08:23:25;37.70;1.00
15257;DHT22;7731;50.720;6.912;2023-08-20T08:25:56;35.80;1.00
15257;DHT22;7731;50.720;6.912;2023-08-20T08:28:26;35.30;1.00
15257;DHT22;7731;50.720;6.912;2023-08-20T08:30:56;34.20;1.00
15257;DHT22;7731;50.720;6.912;2023-08-20T08:33:27;34.10;1.00
15257;DHT22;7731;50.720;6.912;2023-08-20T08:36:00;34.50;1.00
15257;DHT22;7731;50.720;6.912;2023-08-20T08:38:30;35.00;1.00
15257;DHT22;7731;50.720;6.912;2023-08-20T08:41:01;34.50;1.00
15257;DHT22;7731;50.720;6.912;2023-08-20T08:43:37;35.20;99.90
15257;DHT22;7731;50.720;6.912;2023-08-20T08:46:12;34.70;99.90
15257;DHT22;7731;50.720;6.912;2023-08-20T08:48:45;35.10;99.90
15257;DHT22;7731;50.720;6.912;2023-08-20T08:51:27;34.40;99.90
15257;DHT22;7731;50.720;6.912;2023-08-20T08:54:00;35.10;1.00
15257;DHT22;7731;50.720;6.912;2023-08-20T08:56:32;35.50;99.90
15257;DHT22;7731;50.720;6.912;2023-08-20T08:59:02;36.20;1.00
15257;DHT22;7731;50.720;6.912;2023-08-20T09:01:38;38.20;1.00
15257;DHT22;7731;50.720;6.912;2023-08-20T09:04:09;38.20;99.90
15257;DHT22;7731;50.720;6.912;2023-08-20T09:06:50;37.50;1.00
15257;DHT22;7731;50.720;6.912;2023-08-20T09:09:21;35.30;99.90
15257;DHT22;7731;50.720;6.912;2023-08-20T09:11:52;35.30;1.00
15257;DHT22;7731;50.720;6.912;2023-08-20T09:14:23;35.40;1.00
15257;DHT22;7731;50.720;6.912;2023-08-20T09:16:59;36.30;99.90
15257;DHT22;7731;50.720;6.912;2023-08-20T09:19:36;37.20;1.00
15257;DHT22;7731;50.720;6.912;2023-08-20T09:22:18;37.30;1.00
15257;DHT22;7731;50.720;6.912;2023-08-20T09:24:53;36.90;1.00
15257;DHT22;7731;50.720;6.912;2023-08-20T09:27:26;36.60;1.00
15257;DHT22;7731;50.720;6.912;2023-08-20T09:29:57;36.80;1.00
15257;DHT22;7731;50.720;6.912;2023-08-20T09:32:28;37.70;99.90
15257;DHT22;7731;50.720;6.912;2023-08-20T09:35:18;37.90;99.90
15257;DHT22;7731;50.720;6.912;2023-08-20T09:37:58;38.40;99.90
15257;DHT22;7731;50.720;6.912;2023-08-20T09:40:31;37.90;99.90
15257;DHT22;7731;50.720;6.912;2023-08-20T09:43:02;37.80;99.90
15257;DHT22;7731;50.720;6.912;2023-08-20T09:45:38;38.30;99.90
15257;DHT22;7731;50.720;6.912;2023-08-20T09:48:17;38.50;99.90
15257;DHT22;7731;50.720;6.912;2023-08-20T09:50:49;39.10;99.00
15257;DHT22;7731;50.720;6.912;2023-08-20T09:53:43;38.80;99.90
15257;DHT22;7731;50.720;6.912;2023-08-20T09:56:28;40.50;92.40
15257;DHT22;7731;50.720;6.912;2023-08-20T09:59:00;41.10;55.50
15257;DHT22;7731;50.720;6.912;2023-08-20T10:01:32;40.20;17.80
15257;DHT22;7731;50.720;6.912;2023-08-20T10:04:03;39.30;6.70
15257;DHT22;7731;50.720;6.912;2023-08-20T10:06:35;38.80;13.70
15257;DHT22;7731;50.720;6.912;2023-08-20T10:09:10;37.50;73.70
15257;DHT22;7731;50.720;6.912;2023-08-20T10:11:40;35.80;99.90
15257;DHT22;7731;50.720;6.912;2023-08-20T10:14:11;35.30;1.00
15257;DHT22;7731;50.720;6.912;2023-08-20T10:16:43;34.40;1.00
15257;DHT22;7731;50.720;6.912;2023-08-20T10:19:20;34.20;99.90
15257;DHT22;7731;50.720;6.912;2023-08-20T10:21:56;33.70;99.90
15257;DHT22;7731;50.720;6.912;2023-08-20T10:24:40;33.80;1.00
15257;DHT22;7731;50.720;6.912;2023-08-20T10:27:11;32.80;1.00
15257;DHT22;7731;50.720;6.912;2023-08-20T10:29:55;32.70;99.90
15257;DHT22;7731;50.720;6.912;2023-08-20T10:32:43;33.90;1.00
15257;DHT22;7731;50.720;6.912;2023-08-20T10:35:22;33.40;99.90
15257;DHT22;7731;50.720;6.912;2023-08-20T10:38:06;33.60;1.00
15257;DHT22;7731;50.720;6.912;2023-08-20T10:40:55;33.50;99.90
15257;DHT22;7731;50.720;6.912;2023-08-20T10:43:30;33.30;1.00
15257;DHT22;7731;50.720;6.912;2023-08-20T10:46:14;33.40;1.00
15257;DHT22;7731;50.720;6.912;2023-08-20T10:48:51;33.10;1.00
15257;DHT22;7731;50.720;6.912;2023-08-20T10:51:25;33.60;1.00
15257;DHT22;7731;50.720;6.912;2023-08-20T10:54:05;34.10;1.00
15257;DHT22;7731;50.720;6.912;2023-08-20T10:56:44;34.50;1.00
15257;DHT22;7731;50.720;6.912;2023-08-20T10:59:17;35.20;1.00
15257;DHT22;7731;50.720;6.912;2023-08-20T11:01:52;36.70;99.10
15257;DHT22;7731;50.720;6.912;2023-08-20T11:04:27;38.60;1.00
15257;DHT22;7731;50.720;6.912;2023-08-20T11:07:00;38.10;99.90
15257;DHT22;7731;50.720;6.912;2023-08-20T11:09:31;37.00;99.90
15257;DHT22;7731;50.720;6.912;2023-08-20T11:12:05;36.40;99.90
15257;DHT22;7731;50.720;6.912;2023-08-20T11:14:36;36.10;1.00
15257;DHT22;7731;50.720;6.912;2023-08-20T11:17:07;35.60;1.00
15257;DHT22;7731;50.720;6.912;2023-08-20T11:19:37;34.00;1.00
15257;DHT22;7731;50.720;6.912;2023-08-20T11:22:09;33.20;99.90
15257;DHT22;7731;50.720;6.912;2023-08-20T11:24:42;32.90;99.90
15257;DHT22;7731;50.720;6.912;2023-08-20T11:27:15;32.20;10.90
15257;DHT22;7731;50.720;6.912;2023-08-20T11:29:54;32.30;99.90
15257;DHT22;7731;50.720;6.912;2023-08-20T11:32:25;32.50;3.90
15257;DHT22;7731;50.720;6.912;2023-08-20T11:34:55;32.40;99.90
15257;DHT22;7731;50.720;6.912;2023-08-20T11:37:27;32.20;1.00
15257;DHT22;7731;50.720;6.912;2023-08-20T11:39:57;31.90;99.90
15257;DHT22;7731;50.720;6.912;2023-08-20T11:42:30;32.40;99.90
15257;DHT22;7731;50.720;6.912;2023-08-20T11:45:01;32.60;1.00
15257;DHT22;7731;50.720;6.912;2023-08-20T11:47:38;32.40;1.00
15257;DHT22;7731;50.720;6.912;2023-08-20T11:50:11;32.40;1.00
15257;DHT22;7731;50.720;6.912;2023-08-20T11:52:42;32.60;1.00
15257;DHT22;7731;50.720;6.912;2023-08-20T11:55:12;32.30;99.90
15257;DHT22;7731;50.720;6.912;2023-08-20T11:57:49;32.40;1.00
15257;DHT22;7731;50.720;6.912;2023-08-20T12:00:24;32.60;99.90
15257;DHT22;7731;50.720;6.912;2023-08-20T12:02:57;32.30;99.90
15257;DHT22;7731;50.720;6.912;2023-08-20T12:05:28;32.20;99.90
15257;DHT22;7731;50.720;6.912;2023-08-20T12:07:59;32.70;1.00
15257;DHT22;7731;50.720;6.912;2023-08-20T12:10:33;33.10;1.00
15257;DHT22;7731;50.720;6.912;2023-08-20T12:13:06;33.20;1.00
15257;DHT22;7731;50.720;6.912;2023-08-20T12:15:38;33.40;1.00
15257;DHT22;7731;50.720;6.912;2023-08-20T12:18:11;33.30;1.00
15257;DHT22;7731;50.720;6.912;2023-08-20T12:20:41;32.50;93.20
15257;DHT22;7731;50.720;6.912;2023-08-20T12:23:12;32.10;1.00
15257;DHT22;7731;50.720;6.912;2023-08-20T12:25:42;32.00;1.00
15257;DHT22;7731;50.720;6.912;2023-08-20T12:28:15;31.90;99.90
15257;DHT22;7731;50.720;6.912;2023-08-20T12:30:48;31.80;99.90
15257;DHT22;7731;50.720;6.912;2023-08-20T12:33:19;31.60;99.90
15257;DHT22;7731;50.720;6.912;2023-08-20T12:35:56;31.70;99.90
15257;DHT22;7731;50.720;6.912;2023-08-20T12:38:26;32.00;99.90
15257;DHT22;7731;50.720;6.912;2023-08-20T12:41:01;32.20;1.00
15257;DHT22;7731;50.720;6.912;2023-08-20T12:43:35;32.10;1.00
15257;DHT22;7731;50.720;6.912;2023-08-20T12:46:08;31.50;21.40
15257;DHT22;7731;50.720;6.912;2023-08-20T12:48:42;31.30;1.00
15257;DHT22;7731;50.720;6.912;2023-08-20T12:51:12;30.90;1.00
15257;DHT22;7731;50.720;6.912;2023-08-20T12:53:50;31.10;1.00
15257;DHT22;7731;50.720;6.912;2023-08-20T12:56:22;31.10;1.00
15257;DHT22;7731;50.720;6.912;2023-08-20T12:58:57;30.90;1.00
15257;DHT22;7731;50.720;6.912;2023-08-20T13:01:28;30.80;1.00
15257;DHT22;7731;50.720;6.912;2023-08-20T13:04:02;30.50;1.00
15257;DHT22;7731;50.720;6.912;2023-08-20T13:06:37;30.40;1.00
15257;DHT22;7731;50.720;6.912;2023-08-20T13:09:13;30.40;1.00
15257;DHT22;7731;50.720;6.912;2023-08-20T13:11:54;30.40;1.00
15257;DHT22;7731;50.720;6.912;2023-08-20T13:14:32;30.50;1.00
15257;DHT22;7731;50.720;6.912;2023-08-20T13:17:06;30.70;1.00
15257;DHT22;7731;50.720;6.912;2023-08-20T13:19:38;30.90;1.00
15257;DHT22;7731;50.720;6.912;2023-08-20T13:22:11;31.00;1.00
15257;DHT22;7731;50.720;6.912;2023-08-20T13:24:44;31.00;1.00
15257;DHT22;7731;50.720;6.912;2023-08-20T13:27:19;30.90;1.00
15257;DHT22;7731;50.720;6.912;2023-08-20T13:29:52;30.90;1.00
15257;DHT22;7731;50.720;6.912;2023-08-20T13:32:22;31.40;1.00
15257;DHT22;7731;50.720;6.912;2023-08-20T13:34:53;31.60;99.90
15257;DHT22;7731;50.720;6.912;2023-08-20T13:37:23;32.10;1.00
15257;DHT22;7731;50.720;6.912;2023-08-20T13:40:08;32.20;1.00
15257;DHT22;7731;50.720;6.912;2023-08-20T13:42:39;31.80;50.60
15257;DHT22;7731;50.720;6.912;2023-08-20T13:45:15;31.80;1.00
15257;DHT22;7731;50.720;6.912;2023-08-20T13:47:45;31.50;99.90
15257;DHT22;7731;50.720;6.912;2023-08-20T13:50:18;31.30;99.90
15257;DHT22;7731;50.720;6.912;2023-08-20T13:52:49;31.20;99.90
15257;DHT22;7731;50.720;6.912;2023-08-20T13:55:19;31.10;1.00
15257;DHT22;7731;50.720;6.912;2023-08-20T13:57:50;31.20;1.00
15257;DHT22;7731;50.720;6.912;2023-08-20T14:00:23;31.20;1.00
15257;DHT22;7731;50.720;6.912;2023-08-20T14:02:53;31.30;1.00
15257;DHT22;7731;50.720;6.912;2023-08-20T14:05:27;31.40;1.00
15257;DHT22;7731;50.720;6.912;2023-08-20T14:07:58;31.50;1.00
15257;DHT22;7731;50.720;6.912;2023-08-20T14:10:34;31.40;99.90
15257;DHT22;7731;50.720;6.912;2023-08-20T14:13:07;31.40;99.90
15257;DHT22;7731;50.720;6.912;2023-08-20T14:15:42;31.40;99.90
15257;DHT22;7731;50.720;6.912;2023-08-20T14:18:13;31.50;1.00
15257;DHT22;7731;50.720;6.912;2023-08-20T14:20:43;31.60;1.00
15257;DHT22;7731;50.720;6.912;2023-08-20T14:23:17;31.40;1.00
15257;DHT22;7731;50.720;6.912;2023-08-20T14:25:47;31.10;99.90
15257;DHT22;7731;50.720;6.912;2023-08-20T14:28:20;31.10;1.00
15257;DHT22;7731;50.720;6.912;2023-08-20T14:30:53;30.90;1.00
15257;DHT22;7731;50.720;6.912;2023-08-20T14:33:24;30.80;1.00
15257;DHT22;7731;50.720;6.912;2023-08-20T14:35:54;30.90;1.00
15257;DHT22;7731;50.720;6.912;2023-08-20T14:38:31;31.10;1.00
15257;DHT22;7731;50.720;6.912;2023-08-20T14:41:03;31.20;1.00
15257;DHT22;7731;50.720;6.912;2023-08-20T14:43:34;31.30;99.90
15257;DHT22;7731;50.720;6.912;2023-08-20T14:46:06;31.10;1.00
15257;DHT22;7731;50.720;6.912;2023-08-20T14:48:43;30.90;1.00
15257;DHT22;7731;50.720;6.912;2023-08-20T14:51:36;31.10;1.00
15257;DHT22;7731;50.720;6.912;2023-08-20T14:54:07;31.00;99.90
15257;DHT22;7731;50.720;6.912;2023-08-20T14:56:37;30.90;99.90
15257;DHT22;7731;50.720;6.912;2023-08-20T14:59:07;30.60;1.00
15257;DHT22;7731;50.720;6.912;2023-08-20T15:01:40;30.20;1.00
15257;DHT22;7731;50.720;6.912;2023-08-20T15:04:13;30.10;1.00
15257;DHT22;7731;50.720;6.912;2023-08-20T15:06:43;30.20;1.00
15257;DHT22;7731;50.720;6.912;2023-08-20T15:09:13;30.20;1.00
15257;DHT22;7731;50.720;6.912;2023-08-20T15:11:48;30.20;1.00
15257;DHT22;7731;50.720;6.912;2023-08-20T15:14:18;30.00;1.00
15257;DHT22;7731;50.720;6.912;2023-08-20T15:16:51;30.00;1.00
15257;DHT22;7731;50.720;6.912;2023-08-20T15:19:21;29.70;99.90
15257;DHT22;7731;50.720;6.912;2023-08-20T15:21:52;29.70;99.90
15257;DHT22;7731;50.720;6.912;2023-08-20T15:24:22;29.60;99.90
15257;DHT22;7731;50.720;6.912;2023-08-20T15:26:56;29.70;99.90
15257;DHT22;7731;50.720;6.912;2023-08-20T15:29:30;29.70;99.90
15257;DHT22;7731;50.720;6.912;2023-08-20T15:32:04;29.70;1.00
15257;DHT22;7731;50.720;6.912;2023-08-20T15:34:34;29.90;99.90
15257;DHT22;7731;50.720;6.912;2023-08-20T15:37:05;30.40;99.90
15257;DHT22;7731;50.720;6.912;2023-08-20T15:39:35;30.80;99.90
15257;DHT22;7731;50.720;6.912;2023-08-20T15:42:08;31.00;39.30
15257;DHT22;7731;50.720;6.912;2023-08-20T15:44:41;31.10;1.00
15257;DHT22;7731;50.720;6.912;2023-08-20T15:47:18;31.10;99.90
15257;DHT22;7731;50.720;6.912;2023-08-20T15:49:49;31.00;99.90
15257;DHT22;7731;50.720;6.912;2023-08-20T15:52:21;30.90;1.00
15257;DHT22;7731;50.720;6.912;2023-08-20T15:54:54;31.00;95.50
15257;DHT22;7731;50.720;6.912;2023-08-20T15:57:25;31.00;1.00
15257;DHT22;7731;50.720;6.912;2023-08-20T15:59:55;31.00;99.90
15257;DHT22;7731;50.720;6.912;2023-08-20T16:02:31;30.80;99.90
15257;DHT22;7731;50.720;6.912;2023-08-20T16:05:09;30.70;99.90
15257;DHT22;7731;50.720;6.912;2023-08-20T16:07:42;30.70;99.90
15257;DHT22;7731;50.720;6.912;2023-08-20T16:10:13;30.50;1.00
15257;DHT22;7731;50.720;6.912;2023-08-20T16:12:47;30.20;1.00
15257;DHT22;7731;50.720;6.912;2023-08-20T16:15:21;29.90;1.00
15257;DHT22;7731;50.720;6.912;2023-08-20T16:17:54;29.80;1.00
15257;DHT22;7731;50.720;6.912;2023-08-20T16:20:32;29.70;1.00
15257;DHT22;7731;50.720;6.912;2023-08-20T16:23:06;29.50;1.00
15257;DHT22;7731;50.720;6.912;2023-08-20T16:25:36;29.50;99.90
15257;DHT22;7731;50.720;6.912;2023-08-20T16:28:08;29.60;99.90
15257;DHT22;7731;50.720;6.912;2023-08-20T16:30:44;29.60;99.90
15257;DHT22;7731;50.720;6.912;2023-08-20T16:33:27;29.60;99.90
15257;DHT22;7731;50.720;6.912;2023-08-20T16:35:57;29.60;99.90